createdAt,value
2022-12-11T00:07:17.145Z,15.79
2022-12-11T00:12:50.962Z,15.35
2022-12-11T00:15:19.688Z,15.15
2022-12-11T00:21:04.590Z,16.00
2022-12-11T00:40:12.355Z,17.38
2022-12-11T00:54:06.819Z,16.67
2022-12-11T01:02:19.823Z,18.46
2022-12-11T01:31:57.434Z,19.23
2022-12-11T01:45:19.626Z,18.16
2022-12-11T01:47:56.498Z,18.07
2022-12-11T01:50:36.139Z,18.03
2022-12-11T01:53:03.774Z,17.02
2022-12-11T01:57:07.510Z,17.32
2022-12-11T01:58:47.844Z,17.27
2022-12-11T02:01:15.087Z,16.82
2022-12-11T02:03:41.556Z,17.24
2022-12-11T02:06:08.303Z,17.17
2022-12-11T02:08:39.920Z,16.90
2022-12-11T02:11:08.873Z,17.18
2022-12-11T02:13:46.831Z,16.07
2022-12-11T02:18:56.309Z,15.20
2022-12-11T02:21:29.166Z,15.15
2022-12-11T02:24:08.575Z,14.37
2022-12-11T02:26:40.886Z,14.73
2022-12-11T02:29:10.073Z,14.44
2022-12-11T02:34:35.189Z,12.56
2022-12-11T02:37:01.629Z,12.88
2022-12-11T02:38:11.381Z,13.47
2022-12-11T02:39:40.608Z,13.17
2022-12-11T02:42:14.937Z,13.81
2022-12-11T02:44:52.910Z,13.78
2022-12-11T02:47:27.218Z,13.79
2022-12-11T02:50:00.782Z,13.66
2022-12-11T02:52:36.849Z,13.46
2022-12-11T02:57:44.871Z,13.68
2022-12-11T03:00:11.797Z,13.97
2022-12-11T03:04:18.234Z,13.74
2022-12-11T03:05:32.590Z,13.25
2022-12-11T03:07:59.134Z,13.48
2022-12-11T03:15:54.454Z,13.08
2022-12-11T03:18:30.613Z,13.50
2022-12-11T03:23:50.011Z,13.60
2022-12-11T03:26:22.993Z,13.64
2022-12-11T03:28:56.515Z,13.35
2022-12-11T03:31:32.600Z,12.80
2022-12-11T03:34:09.211Z,12.66
2022-12-11T03:36:35.749Z,12.07
2022-12-11T03:42:04.479Z,11.36
2022-12-11T03:45:13.861Z,11.51
2022-12-11T03:47:51.954Z,11.89
2022-12-11T03:50:20.311Z,12.02
2022-12-11T04:06:26.055Z,12.08
2022-12-11T04:09:14.568Z,11.54
2022-12-11T04:14:27.617Z,12.35
2022-12-11T04:17:12.969Z,12.53
2022-12-11T04:19:43.963Z,12.69
2022-12-11T04:25:00.672Z,13.78
2022-12-11T04:27:30.600Z,14.08
2022-12-11T04:29:57.151Z,13.42
2022-12-11T04:35:16.412Z,14.71
2022-12-11T04:42:03.640Z,14.29
2022-12-11T04:57:38.242Z,14.18
2022-12-11T05:03:07.036Z,15.15
2022-12-11T05:05:43.051Z,14.76
2022-12-11T05:08:16.463Z,14.40
2022-12-11T05:13:23.248Z,14.70
2022-12-11T05:15:53.339Z,14.45
2022-12-11T05:21:14.719Z,15.01
2022-12-11T05:23:42.418Z,15.30
2022-12-11T05:26:12.420Z,14.85
2022-12-11T05:28:38.885Z,14.93
2022-12-11T05:31:07.333Z,15.25
2022-12-11T05:33:33.772Z,14.79
2022-12-11T05:36:00.168Z,14.36
2022-12-11T05:38:33.727Z,14.24
2022-12-11T05:41:00.203Z,14.75
2022-12-11T05:43:26.568Z,14.34
2022-12-11T05:45:58.874Z,15.35
2022-12-11T05:48:28.417Z,14.91
2022-12-11T05:50:54.785Z,13.28
2022-12-11T05:53:22.503Z,13.12
2022-12-11T05:55:52.331Z,12.25
2022-12-11T05:58:18.759Z,11.74
2022-12-11T06:00:46.397Z,11.55
2022-12-11T06:03:15.760Z,10.88
2022-12-11T06:05:44.430Z,11.00
2022-12-11T06:08:10.939Z,10.56
2022-12-11T06:10:37.366Z,11.40
2022-12-11T06:13:03.983Z,11.33
2022-12-11T06:15:30.335Z,11.03
2022-12-11T06:17:59.199Z,11.09
2022-12-11T06:20:25.596Z,11.41
2022-12-11T06:22:51.940Z,12.24
2022-12-11T06:25:21.239Z,11.46
2022-12-11T06:27:47.691Z,10.65
2022-12-11T06:30:14.532Z,10.98
2022-12-11T06:32:41.124Z,11.83
2022-12-11T06:35:07.536Z,12.09
2022-12-11T06:37:33.908Z,12.56
2022-12-11T06:40:02.679Z,12.49
2022-12-11T06:42:31.662Z,12.75
2022-12-11T06:44:58.088Z,12.58
2022-12-11T06:47:24.455Z,12.39
2022-12-11T06:49:50.783Z,13.03
2022-12-11T06:52:18.689Z,12.70
2022-12-11T06:54:45.254Z,12.92
2022-12-11T06:57:14.146Z,13.73
2022-12-11T06:59:40.566Z,13.50
2022-12-11T07:02:07.059Z,14.31
2022-12-11T07:04:33.418Z,14.59
2022-12-11T07:06:59.837Z,15.05
2022-12-11T07:09:26.222Z,14.89
2022-12-11T07:11:52.682Z,15.42
2022-12-11T07:14:19.141Z,14.83
2022-12-11T07:16:45.544Z,15.16
2022-12-11T07:19:11.993Z,15.18
2022-12-11T07:21:38.367Z,15.16
2022-12-11T07:24:04.714Z,13.70
2022-12-11T07:26:31.118Z,13.59
2022-12-11T07:28:57.541Z,13.37
2022-12-11T07:31:23.984Z,13.15
2022-12-11T07:33:50.414Z,13.90
2022-12-11T07:36:16.758Z,14.23
2022-12-11T07:38:43.139Z,14.58
2022-12-11T07:41:09.489Z,13.11
2022-12-11T07:43:35.867Z,13.15
2022-12-11T07:46:02.305Z,13.31
2022-12-11T07:48:28.671Z,12.58
2022-12-11T07:50:55.005Z,12.40
2022-12-11T07:53:21.447Z,12.77
2022-12-11T07:55:47.872Z,12.76
2022-12-11T07:58:14.411Z,12.51
2022-12-11T08:00:40.831Z,13.85
2022-12-11T08:03:07.227Z,12.50
2022-12-11T08:05:33.578Z,11.92
2022-12-11T08:08:00.038Z,11.91
2022-12-11T08:10:26.413Z,11.93
2022-12-11T08:12:52.800Z,11.36
2022-12-11T08:15:22.238Z,12.07
2022-12-11T08:17:48.572Z,11.84
2022-12-11T08:20:18.720Z,11.55
2022-12-11T08:22:45.110Z,11.22
2022-12-11T08:25:11.843Z,11.46
2022-12-11T08:27:38.397Z,12.02
2022-12-11T08:30:04.756Z,12.58
2022-12-11T08:32:31.130Z,11.89
2022-12-11T08:34:57.576Z,12.32
2022-12-11T08:37:23.948Z,11.91
2022-12-11T08:39:50.274Z,10.94
2022-12-11T08:42:16.604Z,10.81
2022-12-11T08:44:42.994Z,10.51
2022-12-11T08:47:09.361Z,9.86
2022-12-11T08:49:35.703Z,9.74
2022-12-11T08:52:02.058Z,9.86
2022-12-11T08:54:28.400Z,9.85
2022-12-11T08:56:58.011Z,10.95
2022-12-11T08:59:24.716Z,11.32
2022-12-11T09:01:51.123Z,12.24
2022-12-11T09:04:17.532Z,12.58
2022-12-11T09:06:43.966Z,14.25
2022-12-11T09:09:10.305Z,14.16
2022-12-11T09:11:36.633Z,13.03
2022-12-11T09:14:07.151Z,12.51
2022-12-11T09:16:33.809Z,11.68
2022-12-11T09:19:00.180Z,13.82
2022-12-11T09:21:26.570Z,13.68
2022-12-11T09:23:52.912Z,12.88
2022-12-11T09:26:19.230Z,13.30
2022-12-11T09:28:47.025Z,13.24
2022-12-11T09:31:13.666Z,14.20
2022-12-11T09:33:39.988Z,14.49
2022-12-11T09:36:06.399Z,14.90
2022-12-11T09:38:32.727Z,15.50
2022-12-11T09:40:59.091Z,15.30
2022-12-11T09:43:25.406Z,15.54
2022-12-11T09:45:51.763Z,14.97
2022-12-11T09:48:18.123Z,14.67
2022-12-11T09:50:44.482Z,14.21
2022-12-11T09:53:10.788Z,15.09
2022-12-11T09:55:37.151Z,14.96
2022-12-11T09:58:03.544Z,15.20
2022-12-11T10:00:29.851Z,14.56
2022-12-11T10:02:56.246Z,15.08
2022-12-11T10:05:22.637Z,15.77
2022-12-11T10:07:49.045Z,14.91
2022-12-11T10:10:15.420Z,14.79
2022-12-11T10:12:41.796Z,15.11
2022-12-11T10:15:08.162Z,14.89
2022-12-11T10:17:34.605Z,14.65
2022-12-11T10:20:00.977Z,14.19
2022-12-11T10:22:27.297Z,13.65
2022-12-11T10:27:40.017Z,14.20
2022-12-11T10:30:06.319Z,14.61
2022-12-11T10:32:32.734Z,15.23
2022-12-11T10:34:59.077Z,16.38
2022-12-11T10:37:25.398Z,15.56
2022-12-11T10:39:51.695Z,14.92
2022-12-11T10:42:18.010Z,13.41
2022-12-11T10:44:44.456Z,15.27
2022-12-11T10:47:10.783Z,14.68
2022-12-11T10:49:37.116Z,12.66
2022-12-11T10:52:03.448Z,13.32
2022-12-11T10:54:32.220Z,14.52
2022-12-11T10:56:58.619Z,15.22
2022-12-11T10:59:25.168Z,14.90
2022-12-11T11:01:51.674Z,13.89
2022-12-11T11:07:04.284Z,14.70
2022-12-11T11:09:41.552Z,14.04
2022-12-11T11:12:15.849Z,14.34
2022-12-11T11:14:44.368Z,13.49
2022-12-11T11:17:10.824Z,13.55
2022-12-11T11:22:17.459Z,12.86
2022-12-11T11:24:53.137Z,13.44
2022-12-11T11:27:24.582Z,12.94
2022-12-11T11:29:53.215Z,13.28
2022-12-11T11:32:19.806Z,14.73
2022-12-11T11:34:46.457Z,13.43
2022-12-11T11:37:12.788Z,12.89
2022-12-11T11:39:45.179Z,13.36
2022-12-11T11:42:11.886Z,13.89
2022-12-11T11:44:38.236Z,13.48
2022-12-11T11:47:04.563Z,13.77
2022-12-11T11:49:30.891Z,14.46
2022-12-11T11:51:59.590Z,14.81
2022-12-11T11:54:26.184Z,14.69
2022-12-11T11:56:52.539Z,14.67
2022-12-11T11:59:25.226Z,14.60
2022-12-11T12:01:51.555Z,14.33
2022-12-11T12:04:17.960Z,14.32
2022-12-11T12:06:51.062Z,13.40
2022-12-11T12:09:18.178Z,14.18
2022-12-11T12:11:44.581Z,13.47
2022-12-11T12:14:29.068Z,13.25
2022-12-11T12:16:57.578Z,13.15
2022-12-11T12:19:23.949Z,13.81
2022-12-11T12:21:50.303Z,13.29
2022-12-11T12:24:16.804Z,13.09
2022-12-11T12:26:43.241Z,14.99
2022-12-11T12:29:09.607Z,14.84
2022-12-11T12:31:38.066Z,13.11
2022-12-11T12:34:07.244Z,13.53
2022-12-11T12:36:33.604Z,14.06
2022-12-11T12:39:00.418Z,14.42
2022-12-11T12:41:26.758Z,13.48
2022-12-11T12:43:54.532Z,14.70
2022-12-11T12:46:23.199Z,14.51
2022-12-11T12:48:51.135Z,14.99
2022-12-11T12:51:17.565Z,14.83
2022-12-11T12:53:43.977Z,15.00
2022-12-11T12:56:11.358Z,15.51
2022-12-11T12:58:42.685Z,15.32
2022-12-11T13:01:09.076Z,15.15
2022-12-11T13:03:35.530Z,15.44
2022-12-11T13:06:01.884Z,15.29
2022-12-11T13:08:28.333Z,16.35
2022-12-11T13:10:54.773Z,15.96
2022-12-11T13:13:21.130Z,15.63
2022-12-11T13:15:47.483Z,15.35
2022-12-11T13:18:15.909Z,15.42
2022-12-11T13:20:50.752Z,15.88
2022-12-11T13:23:17.187Z,15.77
2022-12-11T13:25:43.502Z,15.86
2022-12-11T13:28:09.840Z,14.58
2022-12-11T13:30:36.200Z,15.56
2022-12-11T13:33:02.531Z,15.11
2022-12-11T13:35:28.861Z,15.00
2022-12-11T13:37:57.419Z,15.32
2022-12-11T13:40:23.818Z,14.27
2022-12-11T13:42:50.236Z,14.48
2022-12-11T13:45:17.970Z,14.03
2022-12-11T13:47:44.328Z,13.56
2022-12-11T13:50:10.722Z,13.98
2022-12-11T13:52:37.175Z,14.50
2022-12-11T13:55:06.412Z,14.00
2022-12-11T13:57:32.802Z,12.37
2022-12-11T13:59:59.147Z,12.21
2022-12-11T14:02:25.627Z,13.62
2022-12-11T14:04:52.052Z,12.97
2022-12-11T14:07:20.356Z,13.43
2022-12-11T14:09:46.863Z,14.44
2022-12-11T14:12:13.323Z,13.99
2022-12-11T14:14:39.683Z,14.79
2022-12-11T14:17:07.486Z,14.87
2022-12-11T14:19:33.857Z,15.25
2022-12-11T14:22:00.245Z,13.43
2022-12-11T14:24:26.582Z,14.88
2022-12-11T14:26:52.994Z,16.73
2022-12-11T14:29:19.409Z,16.21
2022-12-11T14:31:47.092Z,15.58
2022-12-11T14:34:13.541Z,14.54
2022-12-11T14:36:48.859Z,13.73
2022-12-11T14:39:15.252Z,13.85
2022-12-11T14:41:41.616Z,14.91
2022-12-11T14:44:07.976Z,17.04
2022-12-11T14:46:34.323Z,17.64
2022-12-11T14:49:03.414Z,18.80
2022-12-11T14:51:31.147Z,18.66
2022-12-11T14:53:57.499Z,17.58
2022-12-11T14:56:23.868Z,18.73
2022-12-11T14:58:50.354Z,18.07
2022-12-11T15:01:16.801Z,17.32
2022-12-11T15:03:43.271Z,18.14
2022-12-11T15:06:11.443Z,16.30
2022-12-11T15:08:41.985Z,17.24
2022-12-11T15:11:08.832Z,20.29
2022-12-11T15:13:35.390Z,20.15
2022-12-11T15:16:01.751Z,21.57
2022-12-11T15:18:28.166Z,21.57
2022-12-11T15:20:54.604Z,18.08
2022-12-11T15:23:30.242Z,15.10
2022-12-11T15:25:56.694Z,15.29
2022-12-11T15:28:23.073Z,15.48
2022-12-11T15:30:52.295Z,16.32
2022-12-11T15:33:24.328Z,17.68
2022-12-11T15:35:53.056Z,17.86
2022-12-11T15:38:27.943Z,18.61
2022-12-11T15:40:54.324Z,19.71
2022-12-11T15:43:22.984Z,20.52
2022-12-11T15:45:52.626Z,21.16
2022-12-11T15:48:19.112Z,21.74
2022-12-11T15:50:49.067Z,22.69
2022-12-11T15:53:21.364Z,21.61
2022-12-11T15:55:47.768Z,22.51
2022-12-11T15:58:14.125Z,22.63
2022-12-11T16:00:40.481Z,22.68
2022-12-11T16:03:06.907Z,22.20
2022-12-11T16:05:33.305Z,23.45
2022-12-11T16:07:59.899Z,23.98
2022-12-11T16:10:26.382Z,25.26
2022-12-11T16:12:52.707Z,25.62
2022-12-11T16:15:23.440Z,26.32
2022-12-11T16:17:50.597Z,26.46
2022-12-11T16:20:16.931Z,26.15
2022-12-11T16:22:43.327Z,25.50
2022-12-11T16:25:10.075Z,25.00
2022-12-11T16:27:36.651Z,24.78
2022-12-11T16:30:08.254Z,25.28
2022-12-11T16:32:34.684Z,25.11
2022-12-11T16:35:01.392Z,23.82
2022-12-11T16:37:27.914Z,24.45
2022-12-11T16:39:54.360Z,25.86
2022-12-11T16:42:20.718Z,26.48
2022-12-11T16:44:47.093Z,25.54
2022-12-11T16:47:13.501Z,25.32
2022-12-11T16:49:39.927Z,25.26
2022-12-11T16:52:06.346Z,26.46
2022-12-11T16:54:32.725Z,25.87
2022-12-11T16:56:59.125Z,25.48
2022-12-11T16:59:25.495Z,26.25
2022-12-11T17:01:51.932Z,26.59
2022-12-11T17:04:18.365Z,27.60
2022-12-11T17:06:51.814Z,30.36
2022-12-11T17:09:18.243Z,32.43
2022-12-11T17:11:44.703Z,27.72
2022-12-11T17:14:11.095Z,27.63
2022-12-11T17:16:37.459Z,26.86
2022-12-11T17:19:03.824Z,26.01
2022-12-11T17:21:30.185Z,26.10
2022-12-11T17:23:56.584Z,25.01
2022-12-11T17:26:22.968Z,26.06
2022-12-11T17:28:49.366Z,26.99
2022-12-11T17:31:15.788Z,29.25
2022-12-11T17:33:42.166Z,26.31
2022-12-11T17:36:08.706Z,23.36
2022-12-11T17:38:35.133Z,21.97
2022-12-11T17:41:02.676Z,21.27
2022-12-11T17:43:29.107Z,20.34
2022-12-11T17:45:58.481Z,21.14
2022-12-11T17:48:29.384Z,22.13
2022-12-11T17:50:55.761Z,21.01
2022-12-11T17:53:23.580Z,20.80
2022-12-11T17:55:50.053Z,20.17
2022-12-11T17:58:16.448Z,20.77
2022-12-11T18:00:42.872Z,20.73
2022-12-11T18:03:09.227Z,19.82
2022-12-11T18:05:37.632Z,19.61
2022-12-11T18:08:04.138Z,19.73
2022-12-11T18:10:30.519Z,19.37
2022-12-11T18:12:56.945Z,20.22
2022-12-11T18:15:23.447Z,19.84
2022-12-11T18:17:54.321Z,19.10
2022-12-11T18:20:27.492Z,19.95
2022-12-11T18:22:53.955Z,20.63
2022-12-11T18:25:20.361Z,19.95
2022-12-11T18:27:46.873Z,21.28
2022-12-11T18:30:13.228Z,20.14
2022-12-11T18:32:39.600Z,18.53
2022-12-11T18:35:08.402Z,19.25
2022-12-11T18:37:35.641Z,19.45
2022-12-11T18:40:02.016Z,19.91
2022-12-11T18:42:33.082Z,19.62
2022-12-11T18:45:00.051Z,18.95
2022-12-11T18:47:26.540Z,18.41
2022-12-11T18:49:54.787Z,20.24
2022-12-11T18:52:21.145Z,22.16
2022-12-11T18:54:47.568Z,22.40
2022-12-11T18:57:13.988Z,23.73
2022-12-11T18:59:40.358Z,23.39
2022-12-11T19:02:06.763Z,22.29
2022-12-11T19:04:33.220Z,27.07
2022-12-11T19:06:59.565Z,27.47
2022-12-11T19:09:25.889Z,27.85
2022-12-11T19:11:52.194Z,30.60
2022-12-11T19:14:18.499Z,32.01
2022-12-11T19:16:44.850Z,31.43
2022-12-11T19:19:11.172Z,30.91
2022-12-11T19:21:37.489Z,31.13
2022-12-11T19:24:03.833Z,30.84
2022-12-11T19:26:30.199Z,30.15
2022-12-11T19:28:56.512Z,31.23
2022-12-11T19:31:23.042Z,31.57
2022-12-11T19:33:49.383Z,31.69
2022-12-11T19:36:15.686Z,32.34
2022-12-11T19:38:42.028Z,31.43
2022-12-11T19:41:08.385Z,32.02
2022-12-11T19:43:34.724Z,32.55
2022-12-11T19:46:01.058Z,32.66
2022-12-11T19:48:27.357Z,33.15
2022-12-11T19:50:53.672Z,34.38
2022-12-11T19:53:20.064Z,35.69
2022-12-11T19:55:46.376Z,36.34
2022-12-11T19:58:12.689Z,34.93
2022-12-11T20:00:39.061Z,34.63
2022-12-11T20:03:05.460Z,36.71
2022-12-11T20:05:31.784Z,37.81
2022-12-11T20:08:14.292Z,38.29
2022-12-11T20:10:44.389Z,38.96
2022-12-11T20:13:10.717Z,38.92
2022-12-11T20:15:37.048Z,39.20
2022-12-11T20:18:03.368Z,38.53
2022-12-11T20:20:29.723Z,38.55
2022-12-11T20:22:56.039Z,37.87
2022-12-11T20:25:22.476Z,38.48
2022-12-11T20:27:48.816Z,37.99
2022-12-11T20:30:15.126Z,37.69
2022-12-11T20:32:41.564Z,37.94
2022-12-11T20:35:07.925Z,35.72
2022-12-11T20:37:34.268Z,34.36
2022-12-11T20:40:00.672Z,34.98
2022-12-11T20:42:27.097Z,35.33
2022-12-11T20:44:53.428Z,33.75
2022-12-11T20:47:19.844Z,31.71
2022-12-11T20:49:46.260Z,32.23
2022-12-11T20:52:12.596Z,31.12
2022-12-11T20:54:38.979Z,31.27
2022-12-11T20:57:05.426Z,31.38
2022-12-11T20:59:31.811Z,30.88
2022-12-11T21:01:58.248Z,32.66
2022-12-11T21:04:24.627Z,33.64
2022-12-11T21:06:50.947Z,32.90
2022-12-11T21:09:17.259Z,33.46
2022-12-11T21:11:43.623Z,31.69
2022-12-11T21:14:09.963Z,32.54
2022-12-11T21:16:36.401Z,33.48
2022-12-11T21:19:02.804Z,33.38
2022-12-11T21:21:29.139Z,33.08
2022-12-11T21:23:55.496Z,33.47
2022-12-11T21:26:21.852Z,34.00
2022-12-11T21:28:48.211Z,33.29
2022-12-11T21:31:14.653Z,34.47
2022-12-11T21:33:41.053Z,34.65
2022-12-11T21:36:07.401Z,35.06
2022-12-11T21:38:33.740Z,34.06
2022-12-11T21:41:00.086Z,33.66
2022-12-11T21:43:28.756Z,33.72
2022-12-11T21:46:02.560Z,34.76
2022-12-11T21:48:32.596Z,33.23
2022-12-11T21:51:01.968Z,33.07
2022-12-11T21:53:28.275Z,32.19
2022-12-11T21:55:54.617Z,33.03
2022-12-11T21:58:20.970Z,32.07
2022-12-11T22:00:47.307Z,32.16
2022-12-11T22:03:13.781Z,33.34
2022-12-11T22:05:40.097Z,35.23
2022-12-11T22:08:08.927Z,39.71
2022-12-11T22:10:36.540Z,43.20
2022-12-11T22:13:04.154Z,40.52
2022-12-11T22:15:33.222Z,37.64
2022-12-11T22:18:01.872Z,37.60
2022-12-11T22:20:50.517Z,36.42
2022-12-11T22:23:17.543Z,36.28
2022-12-11T22:25:50.690Z,36.59
2022-12-11T22:28:25.412Z,36.53
2022-12-11T22:30:54.580Z,35.69
2022-12-11T22:33:20.942Z,35.02
2022-12-11T22:35:54.436Z,36.65
2022-12-11T22:41:00.992Z,36.23
2022-12-11T22:43:28.946Z,36.66
2022-12-11T22:45:55.344Z,36.57
2022-12-11T22:48:21.717Z,37.53
2022-12-11T22:50:48.055Z,37.41
2022-12-11T22:53:15.404Z,39.21
2022-12-11T22:55:41.706Z,39.09
2022-12-11T22:58:10.268Z,37.08
2022-12-11T23:00:42.356Z,35.21
2022-12-11T23:03:08.768Z,35.29
2022-12-11T23:05:35.204Z,36.65
2022-12-11T23:08:01.674Z,35.94
2022-12-11T23:10:28.096Z,36.03
2022-12-11T23:12:57.428Z,36.39
2022-12-11T23:15:33.001Z,36.81
2022-12-11T23:18:00.583Z,37.57
2022-12-11T23:20:26.892Z,39.92
2022-12-11T23:22:56.343Z,39.46
2022-12-11T23:25:25.434Z,39.51
2022-12-11T23:27:53.599Z,40.65
2022-12-11T23:30:24.189Z,40.94
2022-12-11T23:32:57.366Z,41.44
2022-12-11T23:35:26.532Z,40.80
2022-12-11T23:37:53.431Z,40.59
2022-12-11T23:40:19.759Z,40.04
2022-12-11T23:42:46.076Z,41.09
2022-12-11T23:45:15.059Z,39.89
2022-12-11T23:47:41.611Z,40.98
2022-12-11T23:50:11.956Z,41.64
2022-12-11T23:52:38.487Z,40.68
2022-12-11T23:55:08.887Z,40.55
2022-12-11T23:57:35.263Z,42.43
